sensor_id;sensor_type;location;lat;lon;timestamp;P1;durP1;ratioP1;P2;durP2;ratioP2
36253;SDS011;22291;52.250;21.228;2024-01-10T00:02:11;75.15;;;28.12;;
36253;SDS011;22291;52.250;21.228;2024-01-10T00:04:38;76.72;;;27.07;;
36253;SDS011;22291;52.250;21.228;2024-01-10T00:07:04;78.85;;;38.83;;
36253;SDS011;22291;52.250;21.228;2024-01-10T00:09:31;75.55;;;46.25;;
36253;SDS011;22291;52.250;21.228;2024-01-10T00:11:58;100.65;;;90.22;;
36253;SDS011;22291;52.250;21.228;2024-01-10T00:14:24;87.95;;;65.37;;
36253;SDS011;22291;52.250;21.228;2024-01-10T00:16:51;105.22;;;93.60;;
36253;SDS011;22291;52.250;21.228;2024-01-10T00:19:17;92.92;;;76.37;;
36253;SDS011;22291;52.250;21.228;2024-01-10T00:21:44;72.90;;;27.75;;
36253;SDS011;22291;52.250;21.228;2024-01-10T00:24:11;46.95;;;25.95;;
36253;SDS011;22291;52.250;21.228;2024-01-10T00:26:37;53.45;;;20.62;;
36253;SDS011;22291;52.250;21.228;2024-01-10T00:29:04;54.85;;;20.97;;
36253;SDS011;22291;52.250;21.228;2024-01-10T00:31:30;45.63;;;18.02;;
36253;SDS011;22291;52.250;21.228;2024-01-10T00:33:57;56.08;;;23.00;;
36253;SDS011;22291;52.250;21.228;2024-01-10T00:36:23;65.52;;;23.45;;
36253;SDS011;22291;52.250;21.228;2024-01-10T00:38:49;59.05;;;23.12;;
36253;SDS011;22291;52.250;21.228;2024-01-10T00:41:16;59.93;;;24.95;;
36253;SDS011;22291;52.250;21.228;2024-01-10T00:43:42;62.83;;;22.98;;
36253;SDS011;22291;52.250;21.228;2024-01-10T00:46:09;65.95;;;25.40;;
36253;SDS011;22291;52.250;21.228;2024-01-10T00:48:36;64.47;;;25.32;;
36253;SDS011;22291;52.250;21.228;2024-01-10T00:51:02;68.25;;;23.67;;
36253;SDS011;22291;52.250;21.228;2024-01-10T00:53:31;42.55;;;16.37;;
36253;SDS011;22291;52.250;21.228;2024-01-10T00:55:57;59.08;;;22.13;;
36253;SDS011;22291;52.250;21.228;2024-01-10T00:58:24;62.67;;;23.90;;
36253;SDS011;22291;52.250;21.228;2024-01-10T01:00:50;60.10;;;23.35;;
36253;SDS011;22291;52.250;21.228;2024-01-10T01:03:16;64.82;;;24.63;;
36253;SDS011;22291;52.250;21.228;2024-01-10T01:05:43;63.75;;;24.00;;
36253;SDS011;22291;52.250;21.228;2024-01-10T01:08:10;56.53;;;21.82;;
36253;SDS011;22291;52.250;21.228;2024-01-10T01:10:36;56.58;;;23.30;;
36253;SDS011;22291;52.250;21.228;2024-01-10T01:13:03;54.95;;;22.73;;
36253;SDS011;22291;52.250;21.228;2024-01-10T01:15:29;66.82;;;23.05;;
36253;SDS011;22291;52.250;21.228;2024-01-10T01:17:56;59.75;;;25.35;;
36253;SDS011;22291;52.250;21.228;2024-01-10T01:20:23;66.60;;;25.45;;
36253;SDS011;22291;52.250;21.228;2024-01-10T01:22:49;72.95;;;26.42;;
36253;SDS011;22291;52.250;21.228;2024-01-10T01:25:16;68.72;;;26.07;;
36253;SDS011;22291;52.250;21.228;2024-01-10T01:27:42;80.28;;;28.00;;
36253;SDS011;22291;52.250;21.228;2024-01-10T01:30:09;76.90;;;27.58;;
36253;SDS011;22291;52.250;21.228;2024-01-10T01:32:37;77.47;;;27.13;;
36253;SDS011;22291;52.250;21.228;2024-01-10T01:35:04;70.42;;;26.57;;
36253;SDS011;22291;52.250;21.228;2024-01-10T01:37:31;73.28;;;26.55;;
36253;SDS011;22291;52.250;21.228;2024-01-10T01:39:57;68.25;;;23.98;;
36253;SDS011;22291;52.250;21.228;2024-01-10T01:42:24;61.90;;;23.22;;
36253;SDS011;22291;52.250;21.228;2024-01-10T01:44:50;65.78;;;24.00;;
36253;SDS011;22291;52.250;21.228;2024-01-10T01:47:17;53.55;;;21.85;;
36253;SDS011;22291;52.250;21.228;2024-01-10T01:49:44;68.62;;;24.07;;
36253;SDS011;22291;52.250;21.228;2024-01-10T01:52:10;60.10;;;23.22;;
36253;SDS011;22291;52.250;21.228;2024-01-10T01:54:37;60.33;;;23.32;;
36253;SDS011;22291;52.250;21.228;2024-01-10T01:57:04;68.02;;;22.52;;
36253;SDS011;22291;52.250;21.228;2024-01-10T01:59:31;52.55;;;20.65;;
36253;SDS011;22291;52.250;21.228;2024-01-10T02:01:57;69.25;;;26.37;;
36253;SDS011;22291;52.250;21.228;2024-01-10T02:04:26;71.90;;;24.65;;
36253;SDS011;22291;52.250;21.228;2024-01-10T02:06:54;74.50;;;26.87;;
36253;SDS011;22291;52.250;21.228;2024-01-10T02:09:20;69.00;;;23.45;;
36253;SDS011;22291;52.250;21.228;2024-01-10T02:11:47;64.07;;;22.70;;
36253;SDS011;22291;52.250;21.228;2024-01-10T02:14:14;64.42;;;22.42;;
36253;SDS011;22291;52.250;21.228;2024-01-10T02:16:42;58.78;;;21.52;;
36253;SDS011;22291;52.250;21.228;2024-01-10T02:19:21;63.02;;;25.72;;
36253;SDS011;22291;52.250;21.228;2024-01-10T02:21:49;82.53;;;69.58;;
36253;SDS011;22291;52.250;21.228;2024-01-10T02:24:16;97.60;;;83.80;;
36253;SDS011;22291;52.250;21.228;2024-01-10T02:26:42;105.40;;;94.32;;
36253;SDS011;22291;52.250;21.228;2024-01-10T02:29:09;100.65;;;89.62;;
36253;SDS011;22291;52.250;21.228;2024-01-10T02:31:36;102.10;;;91.95;;
36253;SDS011;22291;52.250;21.228;2024-01-10T02:34:02;101.47;;;91.25;;
36253;SDS011;22291;52.250;21.228;2024-01-10T02:36:29;102.25;;;91.78;;
36253;SDS011;22291;52.250;21.228;2024-01-10T02:38:55;106.17;;;95.20;;
36253;SDS011;22291;52.250;21.228;2024-01-10T02:41:22;96.47;;;86.67;;
36253;SDS011;22291;52.250;21.228;2024-01-10T02:43:48;95.20;;;86.15;;
36253;SDS011;22291;52.250;21.228;2024-01-10T02:46:15;68.50;;;62.37;;
36253;SDS011;22291;52.250;21.228;2024-01-10T02:48:41;95.77;;;87.13;;
36253;SDS011;22291;52.250;21.228;2024-01-10T02:51:08;99.85;;;89.75;;
36253;SDS011;22291;52.250;21.228;2024-01-10T02:53:34;94.77;;;85.15;;
36253;SDS011;22291;52.250;21.228;2024-01-10T02:56:01;92.10;;;83.60;;
36253;SDS011;22291;52.250;21.228;2024-01-10T02:58:28;43.83;;;39.70;;
36253;SDS011;22291;52.250;21.228;2024-01-10T03:00:55;65.20;;;49.73;;
36253;SDS011;22291;52.250;21.228;2024-01-10T03:03:23;48.35;;;37.60;;
36253;SDS011;22291;52.250;21.228;2024-01-10T03:05:50;37.60;;;34.80;;
36253;SDS011;22291;52.250;21.228;2024-01-10T03:08:16;111.17;;;102.40;;
36253;SDS011;22291;52.250;21.228;2024-01-10T03:10:43;73.90;;;66.53;;
36253;SDS011;22291;52.250;21.228;2024-01-10T03:13:09;41.97;;;38.53;;
36253;SDS011;22291;52.250;21.228;2024-01-10T03:15:36;100.50;;;90.62;;
36253;SDS011;22291;52.250;21.228;2024-01-10T03:18:02;131.22;;;119.67;;
36253;SDS011;22291;52.250;21.228;2024-01-10T03:20:29;106.87;;;95.90;;
36253;SDS011;22291;52.250;21.228;2024-01-10T03:22:56;97.97;;;59.45;;
36253;SDS011;22291;52.250;21.228;2024-01-10T03:25:23;86.67;;;43.60;;
36253;SDS011;22291;52.250;21.228;2024-01-10T03:27:49;63.13;;;24.32;;
36253;SDS011;22291;52.250;21.228;2024-01-10T03:30:16;74.40;;;25.52;;
36253;SDS011;22291;52.250;21.228;2024-01-10T03:32:43;66.72;;;26.50;;
36253;SDS011;22291;52.250;21.228;2024-01-10T03:35:10;75.03;;;29.82;;
36253;SDS011;22291;52.250;21.228;2024-01-10T03:37:37;110.40;;;98.27;;
36253;SDS011;22291;52.250;21.228;2024-01-10T03:40:03;100.38;;;89.92;;
36253;SDS011;22291;52.250;21.228;2024-01-10T03:42:30;108.95;;;96.35;;
36253;SDS011;22291;52.250;21.228;2024-01-10T03:44:57;88.62;;;79.53;;
36253;SDS011;22291;52.250;21.228;2024-01-10T03:47:24;116.37;;;104.75;;
36253;SDS011;22291;52.250;21.228;2024-01-10T03:49:50;111.50;;;99.55;;
36253;SDS011;22291;52.250;21.228;2024-01-10T03:52:17;107.50;;;96.80;;
36253;SDS011;22291;52.250;21.228;2024-01-10T03:54:44;103.40;;;92.75;;
36253;SDS011;22291;52.250;21.228;2024-01-10T03:57:11;103.67;;;92.90;;
36253;SDS011;22291;52.250;21.228;2024-01-10T03:59:37;101.82;;;91.45;;
36253;SDS011;22291;52.250;21.228;2024-01-10T04:02:04;45.53;;;40.87;;
36253;SDS011;22291;52.250;21.228;2024-01-10T04:04:31;66.33;;;24.10;;
36253;SDS011;22291;52.250;21.228;2024-01-10T04:06:57;62.80;;;27.10;;
36253;SDS011;22291;52.250;21.228;2024-01-10T04:09:24;111.72;;;86.57;;
36253;SDS011;22291;52.250;21.228;2024-01-10T04:11:50;126.27;;;114.28;;
36253;SDS011;22291;52.250;21.228;2024-01-10T04:14:17;100.53;;;72.25;;
36253;SDS011;22291;52.250;21.228;2024-01-10T04:16:43;72.65;;;39.83;;
36253;SDS011;22291;52.250;21.228;2024-01-10T04:19:10;80.97;;;41.85;;
36253;SDS011;22291;52.250;21.228;2024-01-10T04:21:37;72.37;;;32.45;;
36253;SDS011;22291;52.250;21.228;2024-01-10T04:24:03;75.97;;;39.48;;
36253;SDS011;22291;52.250;21.228;2024-01-10T04:26:30;67.17;;;27.40;;
36253;SDS011;22291;52.250;21.228;2024-01-10T04:28:57;82.93;;;40.63;;
36253;SDS011;22291;52.250;21.228;2024-01-10T04:31:24;88.65;;;49.40;;
36253;SDS011;22291;52.250;21.228;2024-01-10T04:33:51;77.82;;;30.57;;
36253;SDS011;22291;52.250;21.228;2024-01-10T04:36:17;100.05;;;79.70;;
36253;SDS011;22291;52.250;21.228;2024-01-10T04:38:44;65.97;;;29.10;;
36253;SDS011;22291;52.250;21.228;2024-01-10T04:41:11;105.12;;;90.22;;
36253;SDS011;22291;52.250;21.228;2024-01-10T04:43:37;107.27;;;68.35;;
36253;SDS011;22291;52.250;21.228;2024-01-10T04:46:04;86.08;;;68.75;;
36253;SDS011;22291;52.250;21.228;2024-01-10T04:48:31;81.35;;;36.88;;
36253;SDS011;22291;52.250;21.228;2024-01-10T04:50:57;106.78;;;95.10;;
36253;SDS011;22291;52.250;21.228;2024-01-10T04:53:24;106.58;;;95.22;;
36253;SDS011;22291;52.250;21.228;2024-01-10T04:55:50;108.93;;;98.53;;
36253;SDS011;22291;52.250;21.228;2024-01-10T04:58:17;125.62;;;103.27;;
36253;SDS011;22291;52.250;21.228;2024-01-10T05:00:44;108.57;;;93.67;;
36253;SDS011;22291;52.250;21.228;2024-01-10T05:03:10;108.57;;;89.00;;
36253;SDS011;22291;52.250;21.228;2024-01-10T05:05:37;103.07;;;91.95;;
36253;SDS011;22291;52.250;21.228;2024-01-10T05:08:04;63.53;;;57.10;;
36253;SDS011;22291;52.250;21.228;2024-01-10T05:10:32;42.93;;;39.03;;
36253;SDS011;22291;52.250;21.228;2024-01-10T05:12:58;78.40;;;71.07;;
36253;SDS011;22291;52.250;21.228;2024-01-10T05:15:25;70.87;;;64.00;;
36253;SDS011;22291;52.250;21.228;2024-01-10T05:17:51;20.20;;;18.67;;
36253;SDS011;22291;52.250;21.228;2024-01-10T05:20:18;79.37;;;70.77;;
36253;SDS011;22291;52.250;21.228;2024-01-10T05:22:44;70.90;;;63.53;;
36253;SDS011;22291;52.250;21.228;2024-01-10T05:25:11;72.77;;;66.40;;
36253;SDS011;22291;52.250;21.228;2024-01-10T05:27:38;100.00;;;89.30;;
36253;SDS011;22291;52.250;21.228;2024-01-10T05:30:05;106.87;;;92.27;;
36253;SDS011;22291;52.250;21.228;2024-01-10T05:32:33;54.00;;;19.93;;
36253;SDS011;22291;52.250;21.228;2024-01-10T05:34:59;70.72;;;27.65;;
36253;SDS011;22291;52.250;21.228;2024-01-10T05:37:26;67.80;;;24.98;;
36253;SDS011;22291;52.250;21.228;2024-01-10T05:39:52;76.70;;;28.17;;
36253;SDS011;22291;52.250;21.228;2024-01-10T05:42:19;71.02;;;25.43;;
36253;SDS011;22291;52.250;21.228;2024-01-10T05:44:46;109.45;;;92.70;;
36253;SDS011;22291;52.250;21.228;2024-01-10T05:47:13;95.00;;;71.45;;
36253;SDS011;22291;52.250;21.228;2024-01-10T05:49:40;114.42;;;99.35;;
36253;SDS011;22291;52.250;21.228;2024-01-10T05:52:08;100.45;;;88.15;;
36253;SDS011;22291;52.250;21.228;2024-01-10T05:54:34;111.88;;;96.57;;
36253;SDS011;22291;52.250;21.228;2024-01-10T05:57:01;69.33;;;59.13;;
36253;SDS011;22291;52.250;21.228;2024-01-10T05:59:28;26.10;;;23.33;;
36253;SDS011;22291;52.250;21.228;2024-01-10T06:01:56;37.33;;;34.13;;
36253;SDS011;22291;52.250;21.228;2024-01-10T06:04:24;26.42;;;23.75;;
36253;SDS011;22291;52.250;21.228;2024-01-10T06:06:51;25.30;;;23.10;;
36253;SDS011;22291;52.250;21.228;2024-01-10T06:09:17;78.73;;;42.80;;
36253;SDS011;22291;52.250;21.228;2024-01-10T06:11:46;94.50;;;59.27;;
36253;SDS011;22291;52.250;21.228;2024-01-10T06:14:12;96.60;;;81.05;;
36253;SDS011;22291;52.250;21.228;2024-01-10T06:16:39;93.15;;;63.58;;
36253;SDS011;22291;52.250;21.228;2024-01-10T06:19:06;104.50;;;90.00;;
36253;SDS011;22291;52.250;21.228;2024-01-10T06:21:32;114.13;;;101.93;;
36253;SDS011;22291;52.250;21.228;2024-01-10T06:23:59;88.43;;;79.07;;
36253;SDS011;22291;52.250;21.228;2024-01-10T06:26:26;98.23;;;88.50;;
36253;SDS011;22291;52.250;21.228;2024-01-10T06:28:52;103.30;;;92.13;;
36253;SDS011;22291;52.250;21.228;2024-01-10T06:31:19;132.13;;;120.00;;
36253;SDS011;22291;52.250;21.228;2024-01-10T06:33:45;96.87;;;88.33;;
36253;SDS011;22291;52.250;21.228;2024-01-10T06:36:13;52.73;;;47.70;;
36253;SDS011;22291;52.250;21.228;2024-01-10T06:38:39;118.35;;;104.03;;
36253;SDS011;22291;52.250;21.228;2024-01-10T06:41:09;101.07;;;88.47;;
36253;SDS011;22291;52.250;21.228;2024-01-10T06:43:36;40.23;;;29.10;;
36253;SDS011;22291;52.250;21.228;2024-01-10T06:46:03;24.23;;;22.27;;
36253;SDS011;22291;52.250;21.228;2024-01-10T06:48:31;33.80;;;24.13;;
36253;SDS011;22291;52.250;21.228;2024-01-10T06:50:57;17.40;;;16.03;;
36253;SDS011;22291;52.250;21.228;2024-01-10T06:53:25;18.27;;;17.10;;
36253;SDS011;22291;52.250;21.228;2024-01-10T06:55:51;17.93;;;16.80;;
36253;SDS011;22291;52.250;21.228;2024-01-10T06:58:18;15.27;;;14.37;;
36253;SDS011;22291;52.250;21.228;2024-01-10T07:00:44;25.07;;;22.83;;
36253;SDS011;22291;52.250;21.228;2024-01-10T07:03:11;18.40;;;16.33;;
36253;SDS011;22291;52.250;21.228;2024-01-10T07:05:37;76.80;;;66.90;;
36253;SDS011;22291;52.250;21.228;2024-01-10T07:08:04;30.10;;;27.43;;
36253;SDS011;22291;52.250;21.228;2024-01-10T07:10:31;10.67;;;10.07;;
36253;SDS011;22291;52.250;21.228;2024-01-10T07:12:57;10.73;;;10.10;;
36253;SDS011;22291;52.250;21.228;2024-01-10T07:15:24;27.80;;;21.47;;
36253;SDS011;22291;52.250;21.228;2024-01-10T07:17:51;26.20;;;23.43;;
36253;SDS011;22291;52.250;21.228;2024-01-10T07:20:17;36.43;;;24.53;;
36253;SDS011;22291;52.250;21.228;2024-01-10T07:22:43;10.63;;;10.13;;
36253;SDS011;22291;52.250;21.228;2024-01-10T07:25:13;72.13;;;65.87;;
36253;SDS011;22291;52.250;21.228;2024-01-10T07:27:42;31.80;;;28.77;;
36253;SDS011;22291;52.250;21.228;2024-01-10T07:30:09;101.47;;;86.00;;
36253;SDS011;22291;52.250;21.228;2024-01-10T07:32:45;91.30;;;82.93;;
36253;SDS011;22291;52.250;21.228;2024-01-10T07:35:12;12.33;;;11.20;;
36253;SDS011;22291;52.250;21.228;2024-01-10T07:37:39;48.08;;;44.35;;
36253;SDS011;22291;52.250;21.228;2024-01-10T07:40:07;22.20;;;17.77;;
36253;SDS011;22291;52.250;21.228;2024-01-10T07:42:35;18.57;;;14.93;;
36253;SDS011;22291;52.250;21.228;2024-01-10T07:45:02;17.40;;;16.07;;
36253;SDS011;22291;52.250;21.228;2024-01-10T07:47:32;28.00;;;25.27;;
36253;SDS011;22291;52.250;21.228;2024-01-10T07:50:00;48.50;;;43.97;;
36253;SDS011;22291;52.250;21.228;2024-01-10T07:52:27;19.60;;;18.07;;
36253;SDS011;22291;52.250;21.228;2024-01-10T07:54:53;11.90;;;10.80;;
36253;SDS011;22291;52.250;21.228;2024-01-10T07:57:19;40.80;;;29.57;;
36253;SDS011;22291;52.250;21.228;2024-01-10T07:59:45;13.80;;;12.10;;
36253;SDS011;22291;52.250;21.228;2024-01-10T08:02:12;14.13;;;12.90;;
36253;SDS011;22291;52.250;21.228;2024-01-10T08:04:38;12.90;;;12.07;;
36253;SDS011;22291;52.250;21.228;2024-01-10T08:07:05;12.30;;;11.60;;
36253;SDS011;22291;52.250;21.228;2024-01-10T08:09:31;15.80;;;14.77;;
36253;SDS011;22291;52.250;21.228;2024-01-10T08:11:57;9.67;;;9.27;;
36253;SDS011;22291;52.250;21.228;2024-01-10T08:14:23;10.23;;;9.73;;
36253;SDS011;22291;52.250;21.228;2024-01-10T08:16:50;44.27;;;17.17;;
36253;SDS011;22291;52.250;21.228;2024-01-10T08:19:18;24.43;;;21.73;;
36253;SDS011;22291;52.250;21.228;2024-01-10T08:21:44;59.93;;;26.30;;
36253;SDS011;22291;52.250;21.228;2024-01-10T08:24:10;18.93;;;17.30;;
36253;SDS011;22291;52.250;21.228;2024-01-10T08:26:36;39.37;;;35.70;;
36253;SDS011;22291;52.250;21.228;2024-01-10T08:29:03;62.62;;;35.00;;
36253;SDS011;22291;52.250;21.228;2024-01-10T08:31:29;117.75;;;95.05;;
36253;SDS011;22291;52.250;21.228;2024-01-10T08:33:56;127.67;;;98.03;;
36253;SDS011;22291;52.250;21.228;2024-01-10T08:36:22;119.60;;;99.52;;
36253;SDS011;22291;52.250;21.228;2024-01-10T08:38:50;111.85;;;82.50;;
36253;SDS011;22291;52.250;21.228;2024-01-10T08:41:17;105.75;;;82.25;;
36253;SDS011;22291;52.250;21.228;2024-01-10T08:43:49;110.08;;;97.50;;
36253;SDS011;22291;52.250;21.228;2024-01-10T08:46:13;79.55;;;29.07;;
36253;SDS011;22291;52.250;21.228;2024-01-10T08:48:39;81.57;;;34.43;;
36253;SDS011;22291;52.250;21.228;2024-01-10T08:51:06;121.10;;;105.12;;
36253;SDS011;22291;52.250;21.228;2024-01-10T08:53:32;124.95;;;109.65;;
36253;SDS011;22291;52.250;21.228;2024-01-10T08:55:58;79.75;;;41.40;;
36253;SDS011;22291;52.250;21.228;2024-01-10T08:58:25;87.82;;;32.05;;
36253;SDS011;22291;52.250;21.228;2024-01-10T09:00:51;82.15;;;30.12;;
36253;SDS011;22291;52.250;21.228;2024-01-10T09:03:18;81.42;;;40.73;;
36253;SDS011;22291;52.250;21.228;2024-01-10T09:05:44;104.95;;;76.15;;
36253;SDS011;22291;52.250;21.228;2024-01-10T09:08:10;74.80;;;36.50;;
36253;SDS011;22291;52.250;21.228;2024-01-10T09:10:37;90.57;;;59.98;;
36253;SDS011;22291;52.250;21.228;2024-01-10T09:13:03;91.22;;;50.25;;
36253;SDS011;22291;52.250;21.228;2024-01-10T09:15:30;91.40;;;32.50;;
36253;SDS011;22291;52.250;21.228;2024-01-10T09:17:56;78.25;;;32.13;;
36253;SDS011;22291;52.250;21.228;2024-01-10T09:20:23;82.90;;;33.58;;
36253;SDS011;22291;52.250;21.228;2024-01-10T09:22:49;110.90;;;96.67;;
36253;SDS011;22291;52.250;21.228;2024-01-10T09:25:16;119.77;;;99.57;;
36253;SDS011;22291;52.250;21.228;2024-01-10T09:27:43;84.75;;;46.35;;
36253;SDS011;22291;52.250;21.228;2024-01-10T09:30:10;107.58;;;96.22;;
36253;SDS011;22291;52.250;21.228;2024-01-10T09:32:37;107.80;;;94.32;;
36253;SDS011;22291;52.250;21.228;2024-01-10T09:35:03;114.60;;;95.70;;
36253;SDS011;22291;52.250;21.228;2024-01-10T09:37:30;93.50;;;75.22;;
36253;SDS011;22291;52.250;21.228;2024-01-10T09:39:56;109.80;;;86.90;;
36253;SDS011;22291;52.250;21.228;2024-01-10T09:42:23;88.93;;;73.03;;
36253;SDS011;22291;52.250;21.228;2024-01-10T09:44:52;115.77;;;96.92;;
36253;SDS011;22291;52.250;21.228;2024-01-10T09:47:19;76.60;;;68.40;;
36253;SDS011;22291;52.250;21.228;2024-01-10T09:49:46;122.17;;;85.27;;
36253;SDS011;22291;52.250;21.228;2024-01-10T09:52:29;129.97;;;96.43;;
36253;SDS011;22291;52.250;21.228;2024-01-10T09:54:53;117.87;;;99.37;;
36253;SDS011;22291;52.250;21.228;2024-01-10T09:57:24;80.67;;;71.75;;
36253;SDS011;22291;52.250;21.228;2024-01-10T09:59:51;109.20;;;91.97;;
36253;SDS011;22291;52.250;21.228;2024-01-10T10:02:22;75.22;;;29.57;;
36253;SDS011;22291;52.250;21.228;2024-01-10T10:04:51;70.95;;;30.23;;
36253;SDS011;22291;52.250;21.228;2024-01-10T10:07:43;75.92;;;31.52;;
36253;SDS011;22291;52.250;21.228;2024-01-10T10:10:12;75.42;;;39.67;;
36253;SDS011;22291;52.250;21.228;2024-01-10T10:12:48;77.25;;;43.90;;
36253;SDS011;22291;52.250;21.228;2024-01-10T10:15:14;73.22;;;29.98;;
36253;SDS011;22291;52.250;21.228;2024-01-10T10:17:45;74.15;;;31.07;;
36253;SDS011;22291;52.250;21.228;2024-01-10T10:20:22;69.17;;;31.77;;
36253;SDS011;22291;52.250;21.228;2024-01-10T10:23:05;76.62;;;31.05;;
36253;SDS011;22291;52.250;21.228;2024-01-10T10:27:07;91.63;;;34.45;;
36253;SDS011;22291;52.250;21.228;2024-01-10T10:29:40;108.85;;;51.68;;
36253;SDS011;22291;52.250;21.228;2024-01-10T10:32:06;97.92;;;43.83;;
36253;SDS011;22291;52.250;21.228;2024-01-10T10:34:35;77.85;;;40.20;;
36253;SDS011;22291;52.250;21.228;2024-01-10T10:37:02;85.07;;;41.90;;
36253;SDS011;22291;52.250;21.228;2024-01-10T10:39:30;79.82;;;35.55;;
36253;SDS011;22291;52.250;21.228;2024-01-10T10:41:56;80.72;;;37.40;;
36253;SDS011;22291;52.250;21.228;2024-01-10T10:44:25;85.72;;;38.50;;
36253;SDS011;22291;52.250;21.228;2024-01-10T10:46:55;82.50;;;36.20;;
36253;SDS011;22291;52.250;21.228;2024-01-10T10:49:28;80.60;;;37.65;;
36253;SDS011;22291;52.250;21.228;2024-01-10T10:51:57;83.70;;;38.65;;
36253;SDS011;22291;52.250;21.228;2024-01-10T10:54:28;89.60;;;39.83;;
36253;SDS011;22291;52.250;21.228;2024-01-10T10:56:57;88.05;;;40.43;;
36253;SDS011;22291;52.250;21.228;2024-01-10T10:59:28;83.85;;;40.03;;
36253;SDS011;22291;52.250;21.228;2024-01-10T11:01:57;98.35;;;41.73;;
36253;SDS011;22291;52.250;21.228;2024-01-10T11:04:24;93.15;;;42.05;;
36253;SDS011;22291;52.250;21.228;2024-01-10T11:06:52;84.32;;;41.85;;
36253;SDS011;22291;52.250;21.228;2024-01-10T11:09:19;91.25;;;39.58;;
36253;SDS011;22291;52.250;21.228;2024-01-10T11:12:11;86.95;;;40.38;;
36253;SDS011;22291;52.250;21.228;2024-01-10T11:25:59;80.55;;;40.55;;
36253;SDS011;22291;52.250;21.228;2024-01-10T11:28:25;171.13;;;83.80;;
36253;SDS011;22291;52.250;21.228;2024-01-10T11:30:54;83.10;;;40.38;;
36253;SDS011;22291;52.250;21.228;2024-01-10T11:33:23;87.25;;;40.52;;
36253;SDS011;22291;52.250;21.228;2024-01-10T11:41:29;80.28;;;37.28;;
36253;SDS011;22291;52.250;21.228;2024-01-10T11:46:45;82.00;;;39.95;;
36253;SDS011;22291;52.250;21.228;2024-01-10T11:49:16;75.72;;;37.73;;
36253;SDS011;22291;52.250;21.228;2024-01-10T11:51:49;80.03;;;35.92;;
36253;SDS011;22291;52.250;21.228;2024-01-10T11:57:13;81.75;;;40.03;;
36253;SDS011;22291;52.250;21.228;2024-01-10T11:59:53;82.17;;;38.10;;
36253;SDS011;22291;52.250;21.228;2024-01-10T12:02:20;94.35;;;43.73;;
36253;SDS011;22291;52.250;21.228;2024-01-10T12:04:52;82.22;;;37.48;;
36253;SDS011;22291;52.250;21.228;2024-01-10T12:07:21;88.33;;;39.70;;
36253;SDS011;22291;52.250;21.228;2024-01-10T12:09:52;87.00;;;39.78;;
36253;SDS011;22291;52.250;21.228;2024-01-10T12:12:21;88.97;;;41.65;;
36253;SDS011;22291;52.250;21.228;2024-01-10T12:14:50;94.75;;;47.10;;
36253;SDS011;22291;52.250;21.228;2024-01-10T12:17:17;96.37;;;45.88;;
36253;SDS011;22291;52.250;21.228;2024-01-10T12:19:45;109.22;;;71.60;;
36253;SDS011;22291;52.250;21.228;2024-01-10T12:22:15;83.62;;;36.88;;
36253;SDS011;22291;52.250;21.228;2024-01-10T12:24:44;78.78;;;35.33;;
36253;SDS011;22291;52.250;21.228;2024-01-10T12:27:22;89.10;;;62.17;;
36253;SDS011;22291;52.250;21.228;2024-01-10T12:29:49;78.70;;;42.80;;
36253;SDS011;22291;52.250;21.228;2024-01-10T12:32:19;77.65;;;43.25;;
36253;SDS011;22291;52.250;21.228;2024-01-10T12:34:48;80.35;;;41.98;;
36253;SDS011;22291;52.250;21.228;2024-01-10T12:37:16;85.83;;;43.45;;
36253;SDS011;22291;52.250;21.228;2024-01-10T12:39:44;85.80;;;44.10;;
36253;SDS011;22291;52.250;21.228;2024-01-10T12:42:12;76.25;;;40.83;;
36253;SDS011;22291;52.250;21.228;2024-01-10T12:44:43;80.12;;;42.93;;
36253;SDS011;22291;52.250;21.228;2024-01-10T12:47:17;79.12;;;41.30;;
36253;SDS011;22291;52.250;21.228;2024-01-10T12:49:47;84.03;;;43.02;;
36253;SDS011;22291;52.250;21.228;2024-01-10T12:52:17;81.30;;;42.00;;
36253;SDS011;22291;52.250;21.228;2024-01-10T12:54:47;76.92;;;41.75;;
36253;SDS011;22291;52.250;21.228;2024-01-10T12:57:15;84.87;;;43.20;;
36253;SDS011;22291;52.250;21.228;2024-01-10T12:59:42;78.72;;;42.55;;
36253;SDS011;22291;52.250;21.228;2024-01-10T13:02:09;82.35;;;42.60;;
36253;SDS011;22291;52.250;21.228;2024-01-10T13:04:36;77.82;;;39.78;;
36253;SDS011;22291;52.250;21.228;2024-01-10T13:07:04;79.27;;;41.37;;
36253;SDS011;22291;52.250;21.228;2024-01-10T13:09:31;73.80;;;39.33;;
36253;SDS011;22291;52.250;21.228;2024-01-10T13:11:58;71.42;;;40.45;;
36253;SDS011;22291;52.250;21.228;2024-01-10T13:14:26;83.25;;;41.48;;
36253;SDS011;22291;52.250;21.228;2024-01-10T13:19:22;72.67;;;37.50;;
36253;SDS011;22291;52.250;21.228;2024-01-10T13:21:49;74.53;;;37.58;;
36253;SDS011;22291;52.250;21.228;2024-01-10T13:26:46;69.60;;;35.28;;
36253;SDS011;22291;52.250;21.228;2024-01-10T13:29:13;72.80;;;38.15;;
36253;SDS011;22291;52.250;21.228;2024-01-10T13:31:41;69.62;;;34.80;;
36253;SDS011;22291;52.250;21.228;2024-01-10T13:34:08;69.80;;;35.50;;
36253;SDS011;22291;52.250;21.228;2024-01-10T13:36:36;69.37;;;34.08;;
36253;SDS011;22291;52.250;21.228;2024-01-10T13:39:03;67.22;;;32.35;;
36253;SDS011;22291;52.250;21.228;2024-01-10T13:41:31;71.72;;;31.75;;
36253;SDS011;22291;52.250;21.228;2024-01-10T13:43:59;69.37;;;32.63;;
36253;SDS011;22291;52.250;21.228;2024-01-10T13:46:25;67.37;;;32.85;;
36253;SDS011;22291;52.250;21.228;2024-01-10T13:48:53;68.37;;;34.18;;
36253;SDS011;22291;52.250;21.228;2024-01-10T13:51:21;68.75;;;32.28;;
36253;SDS011;22291;52.250;21.228;2024-01-10T13:53:47;67.37;;;31.37;;
36253;SDS011;22291;52.250;21.228;2024-01-10T13:56:15;71.77;;;30.52;;
36253;SDS011;22291;52.250;21.228;2024-01-10T13:58:43;67.97;;;30.15;;
36253;SDS011;22291;52.250;21.228;2024-01-10T14:01:10;70.28;;;32.28;;
36253;SDS011;22291;52.250;21.228;2024-01-10T14:06:43;57.90;;;28.80;;
36253;SDS011;22291;52.250;21.228;2024-01-10T14:09:13;64.92;;;31.15;;
36253;SDS011;22291;52.250;21.228;2024-01-10T14:11:42;72.12;;;30.57;;
36253;SDS011;22291;52.250;21.228;2024-01-10T14:14:11;62.35;;;26.05;;
36253;SDS011;22291;52.250;21.228;2024-01-10T14:16:39;62.98;;;27.70;;
36253;SDS011;22291;52.250;21.228;2024-01-10T14:19:07;54.48;;;24.87;;
36253;SDS011;22291;52.250;21.228;2024-01-10T14:21:35;58.55;;;26.97;;
36253;SDS011;22291;52.250;21.228;2024-01-10T14:24:04;58.68;;;27.98;;
36253;SDS011;22291;52.250;21.228;2024-01-10T14:26:32;64.15;;;27.50;;
36253;SDS011;22291;52.250;21.228;2024-01-10T14:29:00;61.37;;;27.50;;
36253;SDS011;22291;52.250;21.228;2024-01-10T14:31:29;60.70;;;28.25;;
36253;SDS011;22291;52.250;21.228;2024-01-10T14:33:56;64.27;;;28.98;;
36253;SDS011;22291;52.250;21.228;2024-01-10T14:36:25;64.95;;;29.37;;
36253;SDS011;22291;52.250;21.228;2024-01-10T14:38:54;62.17;;;27.98;;
36253;SDS011;22291;52.250;21.228;2024-01-10T14:41:23;61.40;;;26.75;;